sensor_id;sensor_type;location;lat;lon;timestamp;P1;durP1;ratioP1;P2;durP2;ratioP2
17365;SDS011;8800;50.118;9.900;2023-01-19T00:01:22;20.88;;;9.02;;
17365;SDS011;8800;50.118;9.900;2023-01-19T00:03:48;24.25;;;8.45;;
17365;SDS011;8800;50.118;9.900;2023-01-19T00:06:15;18.58;;;7.78;;
17365;SDS011;8800;50.118;9.900;2023-01-19T00:08:41;22.05;;;8.10;;
17365;SDS011;8800;50.118;9.900;2023-01-19T00:11:10;50.90;;;16.33;;
17365;SDS011;8800;50.118;9.900;2023-01-19T00:13:36;87.25;;;26.02;;
17365;SDS011;8800;50.118;9.900;2023-01-19T00:16:03;79.90;;;23.00;;
17365;SDS011;8800;50.118;9.900;2023-01-19T00:18:31;100.28;;;29.60;;
17365;SDS011;8800;50.118;9.900;2023-01-19T00:20:57;52.35;;;16.55;;
17365;SDS011;8800;50.118;9.900;2023-01-19T00:23:23;47.80;;;14.95;;
17365;SDS011;8800;50.118;9.900;2023-01-19T00:25:50;51.13;;;15.23;;
17365;SDS011;8800;50.118;9.900;2023-01-19T00:28:17;27.67;;;9.82;;
17365;SDS011;8800;50.118;9.900;2023-01-19T00:30:44;25.58;;;9.63;;
17365;SDS011;8800;50.118;9.900;2023-01-19T00:33:10;24.42;;;9.40;;
17365;SDS011;8800;50.118;9.900;2023-01-19T00:35:39;28.70;;;10.43;;
17365;SDS011;8800;50.118;9.900;2023-01-19T00:38:07;31.40;;;12.23;;
17365;SDS011;8800;50.118;9.900;2023-01-19T00:40:34;36.88;;;11.57;;
17365;SDS011;8800;50.118;9.900;2023-01-19T00:43:00;29.80;;;10.77;;
17365;SDS011;8800;50.118;9.900;2023-01-19T00:45:28;36.65;;;11.63;;
17365;SDS011;8800;50.118;9.900;2023-01-19T00:47:54;26.55;;;8.70;;
17365;SDS011;8800;50.118;9.900;2023-01-19T00:50:22;32.97;;;9.52;;
17365;SDS011;8800;50.118;9.900;2023-01-19T00:52:50;63.42;;;16.67;;
17365;SDS011;8800;50.118;9.900;2023-01-19T00:55:17;45.08;;;13.55;;
17365;SDS011;8800;50.118;9.900;2023-01-19T00:57:44;43.60;;;11.15;;
17365;SDS011;8800;50.118;9.900;2023-01-19T01:00:11;35.65;;;11.60;;
17365;SDS011;8800;50.118;9.900;2023-01-19T01:02:38;27.92;;;10.32;;
17365;SDS011;8800;50.118;9.900;2023-01-19T01:05:05;32.53;;;11.57;;
17365;SDS011;8800;50.118;9.900;2023-01-19T01:07:32;31.38;;;12.32;;
17365;SDS011;8800;50.118;9.900;2023-01-19T01:10:06;30.52;;;10.52;;
17365;SDS011;8800;50.118;9.900;2023-01-19T01:12:33;29.15;;;9.77;;
17365;SDS011;8800;50.118;9.900;2023-01-19T01:15:00;30.13;;;9.45;;
17365;SDS011;8800;50.118;9.900;2023-01-19T01:17:26;33.05;;;10.23;;
17365;SDS011;8800;50.118;9.900;2023-01-19T01:19:52;40.17;;;10.63;;
17365;SDS011;8800;50.118;9.900;2023-01-19T01:22:19;34.28;;;11.60;;
17365;SDS011;8800;50.118;9.900;2023-01-19T01:24:45;31.50;;;10.05;;
17365;SDS011;8800;50.118;9.900;2023-01-19T01:27:13;34.42;;;11.18;;
17365;SDS011;8800;50.118;9.900;2023-01-19T01:29:39;54.03;;;12.98;;
17365;SDS011;8800;50.118;9.900;2023-01-19T01:32:10;32.50;;;11.30;;
17365;SDS011;8800;50.118;9.900;2023-01-19T01:34:37;39.33;;;12.82;;
17365;SDS011;8800;50.118;9.900;2023-01-19T01:37:03;29.40;;;9.75;;
17365;SDS011;8800;50.118;9.900;2023-01-19T01:39:32;35.28;;;9.15;;
17365;SDS011;8800;50.118;9.900;2023-01-19T01:41:58;41.58;;;9.73;;
17365;SDS011;8800;50.118;9.900;2023-01-19T01:44:46;30.60;;;9.27;;
17365;SDS011;8800;50.118;9.900;2023-01-19T01:47:16;20.60;;;7.25;;
17365;SDS011;8800;50.118;9.900;2023-01-19T01:49:44;25.63;;;7.57;;
17365;SDS011;8800;50.118;9.900;2023-01-19T01:52:12;24.13;;;7.32;;
17365;SDS011;8800;50.118;9.900;2023-01-19T01:54:38;27.95;;;8.18;;
17365;SDS011;8800;50.118;9.900;2023-01-19T01:57:05;25.80;;;8.80;;
17365;SDS011;8800;50.118;9.900;2023-01-19T01:59:37;21.02;;;7.38;;
17365;SDS011;8800;50.118;9.900;2023-01-19T02:02:06;35.70;;;8.48;;
17365;SDS011;8800;50.118;9.900;2023-01-19T02:04:52;33.42;;;9.48;;
17365;SDS011;8800;50.118;9.900;2023-01-19T02:07:21;24.30;;;9.27;;
17365;SDS011;8800;50.118;9.900;2023-01-19T02:10:07;27.25;;;9.60;;
17365;SDS011;8800;50.118;9.900;2023-01-19T02:12:51;27.73;;;9.38;;
17365;SDS011;8800;50.118;9.900;2023-01-19T02:15:35;25.58;;;9.77;;
17365;SDS011;8800;50.118;9.900;2023-01-19T02:18:02;27.83;;;9.02;;
17365;SDS011;8800;50.118;9.900;2023-01-19T02:20:30;24.90;;;8.65;;
17365;SDS011;8800;50.118;9.900;2023-01-19T02:22:58;19.42;;;8.20;;
17365;SDS011;8800;50.118;9.900;2023-01-19T02:25:28;21.00;;;7.72;;
17365;SDS011;8800;50.118;9.900;2023-01-19T02:27:54;29.25;;;9.40;;
17365;SDS011;8800;50.118;9.900;2023-01-19T02:30:20;21.40;;;8.45;;
17365;SDS011;8800;50.118;9.900;2023-01-19T02:32:47;27.45;;;8.95;;
17365;SDS011;8800;50.118;9.900;2023-01-19T02:35:14;24.55;;;8.60;;
17365;SDS011;8800;50.118;9.900;2023-01-19T02:37:40;23.63;;;9.27;;
17365;SDS011;8800;50.118;9.900;2023-01-19T02:40:09;21.55;;;8.02;;
17365;SDS011;8800;50.118;9.900;2023-01-19T02:42:38;20.83;;;8.13;;
17365;SDS011;8800;50.118;9.900;2023-01-19T02:45:06;22.48;;;8.38;;
17365;SDS011;8800;50.118;9.900;2023-01-19T02:47:37;23.30;;;8.25;;
17365;SDS011;8800;50.118;9.900;2023-01-19T02:50:04;21.13;;;7.68;;
17365;SDS011;8800;50.118;9.900;2023-01-19T02:52:30;19.38;;;8.05;;
17365;SDS011;8800;50.118;9.900;2023-01-19T02:54:59;26.90;;;8.18;;
17365;SDS011;8800;50.118;9.900;2023-01-19T02:57:34;21.85;;;7.82;;
17365;SDS011;8800;50.118;9.900;2023-01-19T03:00:10;29.88;;;8.13;;
17365;SDS011;8800;50.118;9.900;2023-01-19T03:02:40;17.90;;;7.57;;
17365;SDS011;8800;50.118;9.900;2023-01-19T03:05:15;18.88;;;7.15;;
17365;SDS011;8800;50.118;9.900;2023-01-19T03:07:46;19.63;;;7.38;;
17365;SDS011;8800;50.118;9.900;2023-01-19T03:10:16;22.20;;;7.72;;
17365;SDS011;8800;50.118;9.900;2023-01-19T03:12:45;17.20;;;7.30;;
17365;SDS011;8800;50.118;9.900;2023-01-19T03:15:16;43.20;;;8.25;;
17365;SDS011;8800;50.118;9.900;2023-01-19T03:17:44;16.38;;;7.30;;
17365;SDS011;8800;50.118;9.900;2023-01-19T03:20:11;23.65;;;7.82;;
17365;SDS011;8800;50.118;9.900;2023-01-19T03:22:38;19.85;;;7.75;;
17365;SDS011;8800;50.118;9.900;2023-01-19T03:25:05;18.45;;;7.28;;
17365;SDS011;8800;50.118;9.900;2023-01-19T03:27:32;19.80;;;7.80;;
17365;SDS011;8800;50.118;9.900;2023-01-19T03:30:05;22.05;;;7.85;;
17365;SDS011;8800;50.118;9.900;2023-01-19T03:32:34;20.85;;;7.75;;
17365;SDS011;8800;50.118;9.900;2023-01-19T03:35:03;18.38;;;7.85;;
17365;SDS011;8800;50.118;9.900;2023-01-19T03:37:32;15.70;;;6.45;;
17365;SDS011;8800;50.118;9.900;2023-01-19T03:39:59;16.55;;;6.88;;
17365;SDS011;8800;50.118;9.900;2023-01-19T03:42:25;17.10;;;7.10;;
17365;SDS011;8800;50.118;9.900;2023-01-19T03:44:52;17.30;;;7.13;;
17365;SDS011;8800;50.118;9.900;2023-01-19T03:47:20;16.10;;;6.57;;
17365;SDS011;8800;50.118;9.900;2023-01-19T03:49:48;19.20;;;8.15;;
17365;SDS011;8800;50.118;9.900;2023-01-19T03:52:16;15.18;;;7.35;;
17365;SDS011;8800;50.118;9.900;2023-01-19T03:54:42;16.23;;;7.53;;
17365;SDS011;8800;50.118;9.900;2023-01-19T03:57:08;17.85;;;7.78;;
17365;SDS011;8800;50.118;9.900;2023-01-19T03:59:35;18.05;;;7.88;;
17365;SDS011;8800;50.118;9.900;2023-01-19T04:02:01;19.00;;;7.63;;
17365;SDS011;8800;50.118;9.900;2023-01-19T04:04:27;20.88;;;7.78;;
17365;SDS011;8800;50.118;9.900;2023-01-19T04:06:55;17.23;;;7.60;;
17365;SDS011;8800;50.118;9.900;2023-01-19T04:09:22;19.67;;;7.43;;
17365;SDS011;8800;50.118;9.900;2023-01-19T04:11:48;18.60;;;6.95;;
17365;SDS011;8800;50.118;9.900;2023-01-19T04:14:15;16.65;;;7.35;;
17365;SDS011;8800;50.118;9.900;2023-01-19T04:16:41;17.60;;;7.05;;
17365;SDS011;8800;50.118;9.900;2023-01-19T04:19:08;19.35;;;7.30;;
17365;SDS011;8800;50.118;9.900;2023-01-19T04:21:34;23.48;;;8.48;;
17365;SDS011;8800;50.118;9.900;2023-01-19T04:24:02;17.45;;;7.28;;
17365;SDS011;8800;50.118;9.900;2023-01-19T04:26:28;19.73;;;6.93;;
17365;SDS011;8800;50.118;9.900;2023-01-19T04:28:55;20.75;;;7.18;;
17365;SDS011;8800;50.118;9.900;2023-01-19T04:31:21;24.55;;;8.93;;
17365;SDS011;8800;50.118;9.900;2023-01-19T04:33:48;19.58;;;7.05;;
17365;SDS011;8800;50.118;9.900;2023-01-19T04:36:14;23.27;;;8.10;;
17365;SDS011;8800;50.118;9.900;2023-01-19T04:38:40;25.88;;;8.93;;
17365;SDS011;8800;50.118;9.900;2023-01-19T04:41:08;20.38;;;8.02;;
17365;SDS011;8800;50.118;9.900;2023-01-19T04:43:35;20.15;;;7.68;;
17365;SDS011;8800;50.118;9.900;2023-01-19T04:46:01;20.15;;;7.88;;
17365;SDS011;8800;50.118;9.900;2023-01-19T04:48:28;19.70;;;7.80;;
17365;SDS011;8800;50.118;9.900;2023-01-19T04:50:54;22.73;;;8.18;;
17365;SDS011;8800;50.118;9.900;2023-01-19T04:53:21;18.25;;;7.70;;
17365;SDS011;8800;50.118;9.900;2023-01-19T04:55:50;19.15;;;7.97;;
17365;SDS011;8800;50.118;9.900;2023-01-19T04:58:18;19.35;;;8.00;;
17365;SDS011;8800;50.118;9.900;2023-01-19T05:00:45;20.15;;;6.90;;
17365;SDS011;8800;50.118;9.900;2023-01-19T05:03:11;17.30;;;6.97;;
17365;SDS011;8800;50.118;9.900;2023-01-19T05:05:38;19.17;;;7.30;;
17365;SDS011;8800;50.118;9.900;2023-01-19T05:08:04;20.08;;;7.97;;
17365;SDS011;8800;50.118;9.900;2023-01-19T05:10:31;16.85;;;7.43;;
17365;SDS011;8800;50.118;9.900;2023-01-19T05:12:57;16.67;;;6.80;;
17365;SDS011;8800;50.118;9.900;2023-01-19T05:15:25;18.63;;;7.38;;
17365;SDS011;8800;50.118;9.900;2023-01-19T05:17:51;17.58;;;6.75;;
17365;SDS011;8800;50.118;9.900;2023-01-19T05:20:18;18.80;;;7.60;;
17365;SDS011;8800;50.118;9.900;2023-01-19T05:22:47;16.58;;;6.57;;
17365;SDS011;8800;50.118;9.900;2023-01-19T05:25:13;19.83;;;7.55;;
17365;SDS011;8800;50.118;9.900;2023-01-19T05:27:40;22.50;;;7.82;;
17365;SDS011;8800;50.118;9.900;2023-01-19T05:30:06;18.25;;;7.25;;
17365;SDS011;8800;50.118;9.900;2023-01-19T05:32:34;19.25;;;7.78;;
17365;SDS011;8800;50.118;9.900;2023-01-19T05:35:01;19.08;;;7.43;;
17365;SDS011;8800;50.118;9.900;2023-01-19T05:37:27;21.23;;;7.88;;
17365;SDS011;8800;50.118;9.900;2023-01-19T05:39:55;23.02;;;8.85;;
17365;SDS011;8800;50.118;9.900;2023-01-19T05:42:22;20.70;;;8.10;;
17365;SDS011;8800;50.118;9.900;2023-01-19T05:44:48;32.42;;;11.43;;
17365;SDS011;8800;50.118;9.900;2023-01-19T05:47:14;40.45;;;14.00;;
17365;SDS011;8800;50.118;9.900;2023-01-19T05:49:43;27.42;;;11.10;;
17365;SDS011;8800;50.118;9.900;2023-01-19T05:52:09;25.17;;;10.57;;
17365;SDS011;8800;50.118;9.900;2023-01-19T05:54:35;29.70;;;10.75;;
17365;SDS011;8800;50.118;9.900;2023-01-19T05:57:04;23.70;;;11.18;;
17365;SDS011;8800;50.118;9.900;2023-01-19T05:59:30;27.85;;;12.02;;
17365;SDS011;8800;50.118;9.900;2023-01-19T06:01:57;28.23;;;11.45;;
17365;SDS011;8800;50.118;9.900;2023-01-19T06:04:24;29.23;;;11.95;;
17365;SDS011;8800;50.118;9.900;2023-01-19T06:06:51;25.73;;;10.13;;
17365;SDS011;8800;50.118;9.900;2023-01-19T06:09:18;28.02;;;11.02;;
17365;SDS011;8800;50.118;9.900;2023-01-19T06:11:44;24.38;;;9.75;;
17365;SDS011;8800;50.118;9.900;2023-01-19T06:14:11;24.23;;;9.00;;
17365;SDS011;8800;50.118;9.900;2023-01-19T06:16:37;24.42;;;9.35;;
17365;SDS011;8800;50.118;9.900;2023-01-19T06:19:03;22.83;;;8.98;;
17365;SDS011;8800;50.118;9.900;2023-01-19T06:21:30;17.25;;;8.02;;
17365;SDS011;8800;50.118;9.900;2023-01-19T06:23:58;16.73;;;7.60;;
17365;SDS011;8800;50.118;9.900;2023-01-19T06:26:24;18.58;;;8.10;;
17365;SDS011;8800;50.118;9.900;2023-01-19T06:28:50;22.02;;;8.98;;
17365;SDS011;8800;50.118;9.900;2023-01-19T06:31:17;19.08;;;8.10;;
17365;SDS011;8800;50.118;9.900;2023-01-19T06:33:43;23.55;;;9.15;;
17365;SDS011;8800;50.118;9.900;2023-01-19T06:36:10;23.98;;;8.25;;
17365;SDS011;8800;50.118;9.900;2023-01-19T06:38:36;22.40;;;8.52;;
17365;SDS011;8800;50.118;9.900;2023-01-19T06:41:04;18.13;;;7.80;;
17365;SDS011;8800;50.118;9.900;2023-01-19T06:43:30;16.60;;;7.07;;
17365;SDS011;8800;50.118;9.900;2023-01-19T06:45:57;20.08;;;7.15;;
17365;SDS011;8800;50.118;9.900;2023-01-19T06:48:24;18.15;;;7.30;;
17365;SDS011;8800;50.118;9.900;2023-01-19T06:50:51;20.00;;;7.90;;
17365;SDS011;8800;50.118;9.900;2023-01-19T06:53:17;16.52;;;7.45;;
17365;SDS011;8800;50.118;9.900;2023-01-19T06:55:46;17.30;;;7.65;;
17365;SDS011;8800;50.118;9.900;2023-01-19T06:58:14;18.15;;;7.53;;
17365;SDS011;8800;50.118;9.900;2023-01-19T07:00:40;16.23;;;7.18;;
17365;SDS011;8800;50.118;9.900;2023-01-19T07:03:07;23.33;;;9.07;;
17365;SDS011;8800;50.118;9.900;2023-01-19T07:05:34;18.50;;;7.57;;
17365;SDS011;8800;50.118;9.900;2023-01-19T07:08:00;26.73;;;10.20;;
17365;SDS011;8800;50.118;9.900;2023-01-19T07:10:27;21.02;;;9.38;;
17365;SDS011;8800;50.118;9.900;2023-01-19T07:12:55;19.15;;;8.55;;
17365;SDS011;8800;50.118;9.900;2023-01-19T07:15:23;18.40;;;7.95;;
17365;SDS011;8800;50.118;9.900;2023-01-19T07:17:49;17.48;;;7.43;;
17365;SDS011;8800;50.118;9.900;2023-01-19T07:20:16;15.95;;;6.85;;
17365;SDS011;8800;50.118;9.900;2023-01-19T07:22:43;17.90;;;7.75;;
17365;SDS011;8800;50.118;9.900;2023-01-19T07:25:10;20.40;;;8.05;;
17365;SDS011;8800;50.118;9.900;2023-01-19T07:27:37;19.60;;;8.60;;
17365;SDS011;8800;50.118;9.900;2023-01-19T07:30:04;22.42;;;9.88;;
17365;SDS011;8800;50.118;9.900;2023-01-19T07:32:32;31.13;;;11.07;;
17365;SDS011;8800;50.118;9.900;2023-01-19T07:34:59;36.10;;;13.90;;
17365;SDS011;8800;50.118;9.900;2023-01-19T07:37:26;27.27;;;11.10;;
17365;SDS011;8800;50.118;9.900;2023-01-19T07:39:52;26.63;;;9.25;;
17365;SDS011;8800;50.118;9.900;2023-01-19T07:42:19;21.08;;;9.23;;
17365;SDS011;8800;50.118;9.900;2023-01-19T07:44:45;23.73;;;9.73;;
17365;SDS011;8800;50.118;9.900;2023-01-19T07:47:11;21.48;;;9.25;;
17365;SDS011;8800;50.118;9.900;2023-01-19T07:49:39;27.88;;;10.63;;
17365;SDS011;8800;50.118;9.900;2023-01-19T07:52:06;26.52;;;10.50;;
17365;SDS011;8800;50.118;9.900;2023-01-19T07:54:32;23.55;;;10.20;;
17365;SDS011;8800;50.118;9.900;2023-01-19T07:56:59;17.55;;;7.35;;
17365;SDS011;8800;50.118;9.900;2023-01-19T07:59:25;16.58;;;7.55;;
17365;SDS011;8800;50.118;9.900;2023-01-19T08:01:52;15.00;;;7.72;;
17365;SDS011;8800;50.118;9.900;2023-01-19T08:04:18;17.20;;;7.20;;
17365;SDS011;8800;50.118;9.900;2023-01-19T08:06:46;23.80;;;7.72;;
17365;SDS011;8800;50.118;9.900;2023-01-19T08:09:12;18.15;;;7.75;;
17365;SDS011;8800;50.118;9.900;2023-01-19T08:11:39;19.38;;;8.43;;
17365;SDS011;8800;50.118;9.900;2023-01-19T08:14:05;22.85;;;8.77;;
17365;SDS011;8800;50.118;9.900;2023-01-19T08:16:32;22.13;;;7.40;;
17365;SDS011;8800;50.118;9.900;2023-01-19T08:18:58;18.13;;;7.70;;
17365;SDS011;8800;50.118;9.900;2023-01-19T08:21:25;22.75;;;9.25;;
17365;SDS011;8800;50.118;9.900;2023-01-19T08:23:53;20.15;;;8.63;;
17365;SDS011;8800;50.118;9.900;2023-01-19T08:26:20;24.10;;;10.18;;
17365;SDS011;8800;50.118;9.900;2023-01-19T08:28:48;26.33;;;11.10;;
17365;SDS011;8800;50.118;9.900;2023-01-19T08:31:14;22.98;;;9.48;;
17365;SDS011;8800;50.118;9.900;2023-01-19T08:33:41;20.98;;;9.95;;
17365;SDS011;8800;50.118;9.900;2023-01-19T08:36:07;28.17;;;11.40;;
17365;SDS011;8800;50.118;9.900;2023-01-19T08:38:33;36.00;;;12.35;;
17365;SDS011;8800;50.118;9.900;2023-01-19T08:41:01;32.78;;;12.77;;
17365;SDS011;8800;50.118;9.900;2023-01-19T08:43:28;31.63;;;12.25;;
17365;SDS011;8800;50.118;9.900;2023-01-19T08:45:54;39.15;;;15.25;;
17365;SDS011;8800;50.118;9.900;2023-01-19T08:48:21;27.45;;;11.80;;
17365;SDS011;8800;50.118;9.900;2023-01-19T08:50:48;18.70;;;8.45;;
17365;SDS011;8800;50.118;9.900;2023-01-19T08:53:15;17.75;;;6.90;;
17365;SDS011;8800;50.118;9.900;2023-01-19T08:55:41;22.95;;;8.18;;
17365;SDS011;8800;50.118;9.900;2023-01-19T08:58:09;22.05;;;9.65;;
17365;SDS011;8800;50.118;9.900;2023-01-19T09:00:36;19.42;;;8.52;;
17365;SDS011;8800;50.118;9.900;2023-01-19T09:03:03;21.52;;;8.18;;
17365;SDS011;8800;50.118;9.900;2023-01-19T09:05:30;18.10;;;8.00;;
17365;SDS011;8800;50.118;9.900;2023-01-19T09:07:59;15.68;;;6.80;;
17365;SDS011;8800;50.118;9.900;2023-01-19T09:10:27;23.02;;;8.85;;
17365;SDS011;8800;50.118;9.900;2023-01-19T09:12:55;17.80;;;7.32;;
17365;SDS011;8800;50.118;9.900;2023-01-19T09:15:23;19.45;;;7.15;;
17365;SDS011;8800;50.118;9.900;2023-01-19T09:17:50;17.60;;;7.20;;
17365;SDS011;8800;50.118;9.900;2023-01-19T09:20:17;19.58;;;7.80;;
17365;SDS011;8800;50.118;9.900;2023-01-19T09:22:43;15.82;;;7.18;;
17365;SDS011;8800;50.118;9.900;2023-01-19T09:25:11;19.15;;;7.65;;
17365;SDS011;8800;50.118;9.900;2023-01-19T09:27:38;21.00;;;7.47;;
17365;SDS011;8800;50.118;9.900;2023-01-19T09:30:04;17.52;;;7.38;;
17365;SDS011;8800;50.118;9.900;2023-01-19T09:32:33;16.60;;;7.13;;
17365;SDS011;8800;50.118;9.900;2023-01-19T09:35:00;17.75;;;7.07;;
17365;SDS011;8800;50.118;9.900;2023-01-19T09:37:26;18.67;;;8.07;;
17365;SDS011;8800;50.118;9.900;2023-01-19T09:39:52;16.10;;;6.47;;
17365;SDS011;8800;50.118;9.900;2023-01-19T09:42:20;15.05;;;6.93;;
17365;SDS011;8800;50.118;9.900;2023-01-19T09:44:49;18.73;;;6.72;;
17365;SDS011;8800;50.118;9.900;2023-01-19T09:47:18;16.08;;;6.70;;
17365;SDS011;8800;50.118;9.900;2023-01-19T09:49:48;18.08;;;7.32;;
17365;SDS011;8800;50.118;9.900;2023-01-19T09:52:17;18.38;;;6.75;;
17365;SDS011;8800;50.118;9.900;2023-01-19T09:54:45;15.10;;;6.50;;
17365;SDS011;8800;50.118;9.900;2023-01-19T09:57:12;14.73;;;6.32;;
17365;SDS011;8800;50.118;9.900;2023-01-19T09:59:39;14.95;;;5.88;;
17365;SDS011;8800;50.118;9.900;2023-01-19T10:02:17;22.52;;;8.55;;
17365;SDS011;8800;50.118;9.900;2023-01-19T10:04:51;25.73;;;9.15;;
17365;SDS011;8800;50.118;9.900;2023-01-19T10:07:24;19.20;;;7.22;;
17365;SDS011;8800;50.118;9.900;2023-01-19T10:12:45;16.92;;;6.95;;
17365;SDS011;8800;50.118;9.900;2023-01-19T10:15:17;12.98;;;5.35;;
17365;SDS011;8800;50.118;9.900;2023-01-19T10:17:47;16.58;;;6.88;;
17365;SDS011;8800;50.118;9.900;2023-01-19T10:20:18;12.77;;;6.00;;
17365;SDS011;8800;50.118;9.900;2023-01-19T10:22:46;14.95;;;6.63;;
17365;SDS011;8800;50.118;9.900;2023-01-19T10:25:14;13.63;;;6.05;;
17365;SDS011;8800;50.118;9.900;2023-01-19T10:27:42;15.82;;;6.63;;
17365;SDS011;8800;50.118;9.900;2023-01-19T10:30:12;16.80;;;6.00;;
17365;SDS011;8800;50.118;9.900;2023-01-19T10:32:41;26.65;;;8.68;;
17365;SDS011;8800;50.118;9.900;2023-01-19T10:35:11;20.48;;;8.27;;
17365;SDS011;8800;50.118;9.900;2023-01-19T10:37:40;23.55;;;7.93;;
17365;SDS011;8800;50.118;9.900;2023-01-19T10:40:13;15.57;;;6.00;;
17365;SDS011;8800;50.118;9.900;2023-01-19T10:42:43;11.98;;;5.32;;
17365;SDS011;8800;50.118;9.900;2023-01-19T10:45:13;16.48;;;6.30;;
17365;SDS011;8800;50.118;9.900;2023-01-19T10:47:40;11.70;;;5.50;;
17365;SDS011;8800;50.118;9.900;2023-01-19T10:50:20;10.98;;;5.15;;
17365;SDS011;8800;50.118;9.900;2023-01-19T10:52:49;11.00;;;5.53;;
17365;SDS011;8800;50.118;9.900;2023-01-19T10:55:22;13.23;;;5.68;;
17365;SDS011;8800;50.118;9.900;2023-01-19T10:57:49;15.30;;;6.90;;
17365;SDS011;8800;50.118;9.900;2023-01-19T11:00:28;15.57;;;6.13;;
17365;SDS011;8800;50.118;9.900;2023-01-19T11:02:54;13.68;;;6.32;;
17365;SDS011;8800;50.118;9.900;2023-01-19T11:05:22;20.27;;;8.20;;
17365;SDS011;8800;50.118;9.900;2023-01-19T11:07:50;15.38;;;6.72;;
17365;SDS011;8800;50.118;9.900;2023-01-19T11:10:21;12.70;;;6.22;;
17365;SDS011;8800;50.118;9.900;2023-01-19T11:12:53;13.07;;;6.10;;
17365;SDS011;8800;50.118;9.900;2023-01-19T11:15:20;12.25;;;6.22;;
17365;SDS011;8800;50.118;9.900;2023-01-19T11:17:50;15.73;;;6.97;;
17365;SDS011;8800;50.118;9.900;2023-01-19T11:20:18;11.05;;;6.28;;
17365;SDS011;8800;50.118;9.900;2023-01-19T11:22:45;17.70;;;6.65;;
17365;SDS011;8800;50.118;9.900;2023-01-19T11:25:20;11.90;;;6.07;;
17365;SDS011;8800;50.118;9.900;2023-01-19T11:27:47;30.15;;;11.45;;
17365;SDS011;8800;50.118;9.900;2023-01-19T11:30:16;20.75;;;7.97;;
17365;SDS011;8800;50.118;9.900;2023-01-19T11:32:44;14.40;;;6.70;;
17365;SDS011;8800;50.118;9.900;2023-01-19T11:35:35;14.40;;;5.43;;
17365;SDS011;8800;50.118;9.900;2023-01-19T11:38:05;12.30;;;5.57;;
17365;SDS011;8800;50.118;9.900;2023-01-19T11:40:33;13.77;;;6.05;;
17365;SDS011;8800;50.118;9.900;2023-01-19T11:43:00;15.82;;;5.93;;
17365;SDS011;8800;50.118;9.900;2023-01-19T11:45:26;10.88;;;5.88;;
17365;SDS011;8800;50.118;9.900;2023-01-19T11:47:53;12.98;;;5.88;;
17365;SDS011;8800;50.118;9.900;2023-01-19T11:50:21;12.70;;;5.93;;
17365;SDS011;8800;50.118;9.900;2023-01-19T11:52:49;11.98;;;5.97;;
17365;SDS011;8800;50.118;9.900;2023-01-19T11:55:20;11.18;;;5.47;;
17365;SDS011;8800;50.118;9.900;2023-01-19T11:57:49;9.70;;;5.07;;
17365;SDS011;8800;50.118;9.900;2023-01-19T12:00:31;12.57;;;5.70;;
17365;SDS011;8800;50.118;9.900;2023-01-19T12:03:00;9.23;;;5.38;;
17365;SDS011;8800;50.118;9.900;2023-01-19T12:05:29;14.98;;;6.43;;
17365;SDS011;8800;50.118;9.900;2023-01-19T12:07:57;10.57;;;5.53;;
17365;SDS011;8800;50.118;9.900;2023-01-19T12:10:26;14.20;;;5.88;;
17365;SDS011;8800;50.118;9.900;2023-01-19T12:12:54;11.05;;;5.60;;
17365;SDS011;8800;50.118;9.900;2023-01-19T12:15:23;14.07;;;5.93;;
17365;SDS011;8800;50.118;9.900;2023-01-19T12:17:51;12.68;;;6.35;;
17365;SDS011;8800;50.118;9.900;2023-01-19T12:20:21;14.18;;;6.82;;
17365;SDS011;8800;50.118;9.900;2023-01-19T12:22:51;11.90;;;5.97;;
17365;SDS011;8800;50.118;9.900;2023-01-19T12:25:20;10.70;;;5.90;;
17365;SDS011;8800;50.118;9.900;2023-01-19T12:27:47;11.57;;;5.63;;
17365;SDS011;8800;50.118;9.900;2023-01-19T12:30:18;14.25;;;6.05;;
17365;SDS011;8800;50.118;9.900;2023-01-19T12:32:45;14.02;;;6.25;;
17365;SDS011;8800;50.118;9.900;2023-01-19T12:37:56;17.40;;;6.87;;
17365;SDS011;8800;50.118;9.900;2023-01-19T12:40:24;13.20;;;5.97;;
17365;SDS011;8800;50.118;9.900;2023-01-19T12:42:55;11.02;;;5.53;;
17365;SDS011;8800;50.118;9.900;2023-01-19T12:45:23;10.65;;;5.50;;
17365;SDS011;8800;50.118;9.900;2023-01-19T12:47:51;13.15;;;5.57;;
17365;SDS011;8800;50.118;9.900;2023-01-19T12:50:17;14.93;;;5.63;;
17365;SDS011;8800;50.118;9.900;2023-01-19T12:52:46;14.02;;;6.20;;
17365;SDS011;8800;50.118;9.900;2023-01-19T12:55:16;12.68;;;5.68;;
17365;SDS011;8800;50.118;9.900;2023-01-19T12:57:47;12.23;;;5.78;;
17365;SDS011;8800;50.118;9.900;2023-01-19T13:00:28;10.80;;;5.93;;
17365;SDS011;8800;50.118;9.900;2023-01-19T13:02:55;13.63;;;6.32;;
17365;SDS011;8800;50.118;9.900;2023-01-19T13:05:23;12.68;;;5.93;;
17365;SDS011;8800;50.118;9.900;2023-01-19T13:10:52;13.45;;;6.15;;
17365;SDS011;8800;50.118;9.900;2023-01-19T13:13:20;9.93;;;4.47;;
17365;SDS011;8800;50.118;9.900;2023-01-19T13:15:48;9.45;;;4.43;;
17365;SDS011;8800;50.118;9.900;2023-01-19T13:18:15;11.27;;;5.90;;
17365;SDS011;8800;50.118;9.900;2023-01-19T13:20:43;14.75;;;5.80;;
17365;SDS011;8800;50.118;9.900;2023-01-19T13:23:15;8.95;;;4.88;;
17365;SDS011;8800;50.118;9.900;2023-01-19T13:25:45;11.07;;;5.35;;
17365;SDS011;8800;50.118;9.900;2023-01-19T13:28:12;10.05;;;5.45;;
17365;SDS011;8800;50.118;9.900;2023-01-19T13:30:43;10.00;;;5.07;;
17365;SDS011;8800;50.118;9.900;2023-01-19T13:33:16;11.52;;;5.47;;
17365;SDS011;8800;50.118;9.900;2023-01-19T13:35:47;10.07;;;5.03;;
17365;SDS011;8800;50.118;9.900;2023-01-19T13:38:14;12.80;;;5.60;;
17365;SDS011;8800;50.118;9.900;2023-01-19T13:40:41;11.40;;;5.28;;
17365;SDS011;8800;50.118;9.900;2023-01-19T13:43:11;8.80;;;5.00;;
17365;SDS011;8800;50.118;9.900;2023-01-19T13:45:40;10.82;;;5.10;;
17365;SDS011;8800;50.118;9.900;2023-01-19T13:48:07;10.82;;;5.68;;
17365;SDS011;8800;50.118;9.900;2023-01-19T13:50:38;13.48;;;6.72;;
17365;SDS011;8800;50.118;9.900;2023-01-19T13:53:13;9.70;;;4.43;;
17365;SDS011;8800;50.118;9.900;2023-01-19T13:55:39;12.50;;;5.53;;
17365;SDS011;8800;50.118;9.900;2023-01-19T13:58:17;9.75;;;5.13;;
17365;SDS011;8800;50.118;9.900;2023-01-19T14:00:44;13.80;;;6.40;;
17365;SDS011;8800;50.118;9.900;2023-01-19T14:03:14;15.15;;;6.88;;
17365;SDS011;8800;50.118;9.900;2023-01-19T14:05:43;15.32;;;7.05;;
17365;SDS011;8800;50.118;9.900;2023-01-19T14:08:11;12.80;;;5.35;;
17365;SDS011;8800;50.118;9.900;2023-01-19T14:10:38;13.27;;;5.75;;
17365;SDS011;8800;50.118;9.900;2023-01-19T14:13:10;19.88;;;8.10;;
17365;SDS011;8800;50.118;9.900;2023-01-19T14:15:37;14.18;;;7.65;;
17365;SDS011;8800;50.118;9.900;2023-01-19T14:18:24;13.68;;;6.65;;
17365;SDS011;8800;50.118;9.900;2023-01-19T14:20:55;14.52;;;7.03;;
17365;SDS011;8800;50.118;9.900;2023-01-19T14:23:35;15.35;;;7.57;;
17365;SDS011;8800;50.118;9.900;2023-01-19T14:26:02;12.88;;;6.10;;
17365;SDS011;8800;50.118;9.900;2023-01-19T14:28:32;16.67;;;7.47;;
17365;SDS011;8800;50.118;9.900;2023-01-19T14:31:16;14.80;;;6.80;;
17365;SDS011;8800;50.118;9.900;2023-01-19T14:33:44;17.00;;;6.10;;
17365;SDS011;8800;50.118;9.900;2023-01-19T14:36:20;14.60;;;7.25;;
17365;SDS011;8800;50.118;9.900;2023-01-19T14:38:49;14.70;;;6.82;;
17365;SDS011;8800;50.118;9.900;2023-01-19T14:41:21;16.25;;;8.07;;
17365;SDS011;8800;50.118;9.900;2023-01-19T14:43:48;15.55;;;7.70;;
17365;SDS011;8800;50.118;9.900;2023-01-19T14:46:15;20.00;;;8.88;;
17365;SDS011;8800;50.118;9.900;2023-01-19T14:48:44;29.85;;;11.43;;
17365;SDS011;8800;50.118;9.900;2023-01-19T14:51:11;23.88;;;9.63;;
17365;SDS011;8800;50.118;9.900;2023-01-19T14:53:44;17.98;;;8.18;;
17365;SDS011;8800;50.118;9.900;2023-01-19T14:56:11;17.52;;;7.22;;
17365;SDS011;8800;50.118;9.900;2023-01-19T14:58:38;14.20;;;6.18;;
17365;SDS011;8800;50.118;9.900;2023-01-19T15:01:04;13.57;;;6.53;;